Time;durP1;ratioP1;P1;durP2;ratioP2;P2;SDS_P1;SDS_P2;PMS_P1;PMS_P2;Temp;Humidity;BMP_temperature;BMP_pressure;BME280_temperature;BME280_humidity;BME280_pressure;Samples;Min_cycle;Max_cycle;Signal;HPM_P1;HPM_P2
2022/08/24 00:00:45;;;;;;;;;;;;;;;23.99;69.54;100600.50;7406995;19;1610;-58
2022/08/24 00:03:14;;;;;;;;;;;;;;;23.95;69.92;100618.91;7407643;19;1775;-55
2022/08/24 00:05:42;;;;;;;;;;;;;;;24.01;69.45;100614.69;7406356;19;1763;-56
2022/08/24 00:08:11;;;;;;;;;;;;;;;23.95;69.61;100609.97;7407230;19;1613;-56
2022/08/24 00:10:39;;;;;;;;;;;;;;;24.04;69.47;100629.72;7406583;19;1548;-58
2022/08/24 00:13:08;;;;;;;;;;;;;;;24.04;69.35;100617.06;7407025;19;1636;-56
2022/08/24 00:15:36;;;;;;;;;;;;;;;23.94;69.43;100624.50;7404797;19;1846;-59
2022/08/24 00:18:07;;;;;;;;;;;;;;;23.79;69.30;100622.47;7406794;19;1537;-56
2022/08/24 00:20:36;;;;;;;;;;;;;;;23.63;69.51;100622.47;7406968;19;1710;-58
2022/08/24 00:23:04;;;;;;;;;;;;;;;23.70;69.61;100615.41;7406370;19;1585;-58
2022/08/24 00:25:33;;;;;;;;;;;;;;;23.66;69.86;100621.31;7406446;19;1528;-58
2022/08/24 00:28:01;;;;;;;;;;;;;;;23.84;69.36;100624.69;7406694;19;1542;-56
2022/08/24 00:30:30;;;;;;;;;;;;;;;23.88;69.07;100633.31;7405979;19;1675;-59
2022/08/24 00:32:58;;;;;;;;;;;;;;;23.84;69.48;100638.19;7407260;19;1428;-58
2022/08/24 00:35:29;;;;;;;;;;;;;;;23.88;69.28;100633.31;7405943;19;1858;-58
2022/08/24 00:37:58;;;;;;;;;;;;;;;23.86;69.15;100627.22;7407210;19;1621;-58
2022/08/24 00:40:30;;;;;;;;;;;;;;;23.79;69.42;100635.16;7405756;19;1747;-56
2022/08/24 00:43:02;;;;;;;;;;;;;;;23.47;70.12;100619.78;7405322;19;1731;-55
2022/08/24 00:45:31;;;;;;;;;;;;;;;23.56;70.24;100608.00;7404029;19;1668;-55
2022/08/24 00:48:04;;;;;;;;;;;;;;;23.42;70.37;100610.34;7404988;19;1578;-56
2022/08/24 00:50:39;;;;;;;;;;;;;;;23.28;70.68;100607.44;7405422;19;1382;-56
2022/08/24 00:53:10;;;;;;;;;;;;;;;23.68;69.76;100603.94;7404921;19;1360;-56
2022/08/24 00:55:40;;;;;;;;;;;;;;;23.68;69.50;100586.88;7404886;19;1839;-55
2022/08/24 00:58:12;;;;;;;;;;;;;;;23.23;70.68;100599.88;7403886;19;1310;-55
2022/08/24 01:00:43;;;;;;;;;;;;;;;23.38;70.34;100578.47;7406405;19;993;-58
2022/08/24 01:03:12;;;;;;;;;;;;;;;23.13;71.00;100566.81;7405328;19;1727;-56
2022/08/24 01:05:43;;;;;;;;;;;;;;;23.16;71.14;100580.00;7404699;19;1612;-56
2022/08/24 01:08:13;;;;;;;;;;;;;;;23.07;71.09;100567.50;7405511;19;1641;-58
2022/08/24 01:10:43;;;;;;;;;;;;;;;23.03;70.99;100572.38;7404009;19;1348;-58
2022/08/24 01:13:13;;;;;;;;;;;;;;;23.05;71.11;100589.22;7405145;19;1585;-55
2022/08/24 01:15:42;;;;;;;;;;;;;;;23.36;69.98;100575.94;7402546;19;1844;-56
2022/08/24 01:21:00;;;;;;;;;;;;;;;23.58;69.22;100562.78;7405874;19;1641;-55
2022/08/24 01:23:42;;;;;;;;;;;;;;;23.65;69.05;100577.25;7404222;19;1313;-58
2022/08/24 01:26:12;;;;;;;;;;;;;;;23.78;68.52;100568.69;7403560;19;1392;-56
2022/08/24 01:28:42;;;;;;;;;;;;;;;23.71;68.59;100565.75;7404172;19;1608;-56
2022/08/24 01:31:10;;;;;;;;;;;;;;;23.74;68.67;100573.53;7404821;19;1556;-55
2022/08/24 01:33:39;;;;;;;;;;;;;;;23.80;68.46;100583.69;7405475;19;1513;-59
2022/08/24 01:36:11;;;;;;;;;;;;;;;23.68;68.85;100585.03;7403320;19;1863;-56
2022/08/24 01:38:43;;;;;;;;;;;;;;;23.65;68.92;100566.47;7404638;19;1596;-58
2022/08/24 01:41:11;;;;;;;;;;;;;;;23.68;68.63;100568.81;7404148;19;1310;-59
2022/08/24 01:43:40;;;;;;;;;;;;;;;23.76;68.64;100579.59;7404551;19;1529;-58
2022/08/24 01:46:09;;;;;;;;;;;;;;;23.85;68.52;100566.13;7404205;19;1550;-58
2022/08/24 01:48:38;;;;;;;;;;;;;;;23.81;68.50;100571.88;7405120;19;1613;-56
2022/08/24 01:51:06;;;;;;;;;;;;;;;23.78;68.22;100566.81;7403936;19;1777;-55
2022/08/24 01:53:35;;;;;;;;;;;;;;;23.85;68.08;100572.34;7403886;19;1526;-56
2022/08/24 01:56:06;;;;;;;;;;;;;;;23.79;68.17;100579.28;7406950;19;1851;-56
2022/08/24 01:58:35;;;;;;;;;;;;;;;23.81;68.34;100574.59;7409772;19;1320;-56
2022/08/24 02:01:03;;;;;;;;;;;;;;;23.91;68.14;100576.22;7402617;19;1648;-59
2022/08/24 02:03:32;;;;;;;;;;;;;;;23.86;68.23;100584.84;7411181;19;1518;-59
2022/08/24 02:06:00;;;;;;;;;;;;;;;23.89;68.24;100583.66;7410444;19;1412;-59
2022/08/24 02:08:28;;;;;;;;;;;;;;;23.84;68.20;100553.66;7410580;19;1371;-59
2022/08/24 02:10:57;;;;;;;;;;;;;;;23.97;67.89;100570.13;7411683;19;1549;-59
2022/08/24 02:13:28;;;;;;;;;;;;;;;24.08;67.53;100583.28;7409347;19;1405;-59
2022/08/24 02:15:57;;;;;;;;;;;;;;;24.03;67.86;100582.94;7407052;19;1876;-59
2022/08/24 02:18:26;;;;;;;;;;;;;;;23.88;68.16;100582.00;7411545;19;1392;-59
2022/08/24 02:20:55;;;;;;;;;;;;;;;23.88;68.27;100587.38;7409163;19;1647;-59
2022/08/24 02:23:23;;;;;;;;;;;;;;;23.81;68.23;100571.88;7410260;19;1518;-59
2022/08/24 02:25:52;;;;;;;;;;;;;;;23.79;68.18;100573.03;7410265;19;1533;-59
2022/08/24 02:28:21;;;;;;;;;;;;;;;23.78;67.93;100576.78;7409866;19;1537;-59
2022/08/24 02:30:52;;;;;;;;;;;;;;;23.80;67.86;100582.84;7409721;19;1280;-59
2022/08/24 02:33:22;;;;;;;;;;;;;;;23.78;67.57;100583.00;7409837;19;1495;-59
2022/08/24 02:35:51;;;;;;;;;;;;;;;23.85;67.43;100599.34;7410252;19;1846;-59
2022/08/24 02:38:19;;;;;;;;;;;;;;;23.77;67.78;100580.44;7410440;19;1300;-59
2022/08/24 02:40:48;;;;;;;;;;;;;;;23.82;67.53;100583.50;7409158;19;1312;-59
2022/08/24 02:43:17;;;;;;;;;;;;;;;23.79;67.30;100584.69;7409616;19;1537;-59
2022/08/24 02:45:46;;;;;;;;;;;;;;;23.85;67.12;100587.72;7408779;19;1470;-59
2022/08/24 02:48:18;;;;;;;;;;;;;;;23.82;66.98;100603.25;7407474;19;1321;-59
2022/08/24 02:50:48;;;;;;;;;;;;;;;23.87;66.79;100591.94;7408827;19;1541;-60
2022/08/24 02:53:18;;;;;;;;;;;;;;;23.82;66.71;100592.44;7408659;19;1533;-59
2022/08/24 02:55:46;;;;;;;;;;;;;;;23.75;67.07;100574.38;7408255;19;1858;-60
2022/08/24 02:58:15;;;;;;;;;;;;;;;23.71;66.96;100576.56;7408554;19;1390;-60
2022/08/24 03:00:45;;;;;;;;;;;;;;;23.62;65.59;100581.16;7409360;19;1537;-59
2022/08/24 03:03:14;;;;;;;;;;;;;;;23.77;65.97;100586.72;7410041;19;1566;-60
2022/08/24 03:05:45;;;;;;;;;;;;;;;23.62;66.28;100583.00;7407668;19;1392;-59
2022/08/24 03:08:14;;;;;;;;;;;;;;;23.59;66.15;100592.28;7405177;19;1436;-60
2022/08/24 03:10:42;;;;;;;;;;;;;;;23.69;66.09;100586.69;7406773;19;1293;-59
2022/08/24 03:13:11;;;;;;;;;;;;;;;23.73;65.88;100593.44;7408066;19;1491;-59
2022/08/24 03:15:39;;;;;;;;;;;;;;;23.79;65.82;100591.94;7407356;19;1857;-60
2022/08/24 03:18:08;;;;;;;;;;;;;;;23.79;65.61;100597.34;7408629;19;1612;-59
2022/08/24 03:20:36;;;;;;;;;;;;;;;23.63;65.95;100590.09;7408680;19;1532;-59
2022/08/24 03:23:07;;;;;;;;;;;;;;;23.72;65.63;100621.47;7408333;19;1353;-59
2022/08/24 03:25:36;;;;;;;;;;;;;;;23.70;65.43;100601.91;7408917;19;1512;-60
2022/08/24 03:28:05;;;;;;;;;;;;;;;23.75;65.29;100620.28;7408842;19;1634;-59
2022/08/24 03:30:33;;;;;;;;;;;;;;;23.77;65.30;100618.25;7407772;19;1731;-59
2022/08/24 03:33:04;;;;;;;;;;;;;;;23.78;65.21;100626.22;7408327;19;1637;-59
2022/08/24 03:35:32;;;;;;;;;;;;;;;23.76;65.40;100628.22;7406858;19;1867;-59
2022/08/24 03:38:01;;;;;;;;;;;;;;;23.77;65.42;100619.13;7408377;19;1517;-60
2022/08/24 03:40:33;;;;;;;;;;;;;;;23.94;65.01;100625.34;7407609;19;1536;-59
2022/08/24 03:43:02;;;;;;;;;;;;;;;24.05;65.04;100642.19;7407675;19;1714;-59
2022/08/24 03:45:31;;;;;;;;;;;;;;;23.95;65.28;100620.78;7407326;19;1680;-59
2022/08/24 03:48:00;;;;;;;;;;;;;;;23.84;65.42;100640.06;7406788;19;1613;-60
2022/08/24 03:50:28;;;;;;;;;;;;;;;23.88;65.73;100641.41;7407288;19;1293;-59
2022/08/24 03:52:57;;;;;;;;;;;;;;;23.90;64.76;100634.81;7408234;19;1294;-59
2022/08/24 03:55:26;;;;;;;;;;;;;;;23.93;64.18;100625.50;7407387;19;1536;-59
2022/08/24 03:57:58;;;;;;;;;;;;;;;23.87;64.51;100618.94;7404970;19;1840;-59
2022/08/24 04:00:27;;;;;;;;;;;;;;;23.89;64.85;100632.28;7407301;19;1518;-59
2022/08/24 04:02:56;;;;;;;;;;;;;;;23.94;64.73;100619.13;7406347;19;1534;-59
2022/08/24 04:05:24;;;;;;;;;;;;;;;23.96;64.60;100636.00;7406932;19;1309;-60
2022/08/24 04:07:53;;;;;;;;;;;;;;;23.96;64.97;100628.72;7407499;19;1430;-59
2022/08/24 04:10:21;;;;;;;;;;;;;;;23.89;64.78;100625.00;7406394;19;1608;-60
2022/08/24 04:12:50;;;;;;;;;;;;;;;23.87;64.79;100639.69;7406793;19;1329;-59
2022/08/24 04:15:23;;;;;;;;;;;;;;;23.85;64.61;100630.94;7405904;19;1477;-60
2022/08/24 04:17:52;;;;;;;;;;;;;;;23.62;65.04;100634.31;7404889;19;1870;-59
2022/08/24 04:20:22;;;;;;;;;;;;;;;23.59;64.95;100626.53;7406285;19;1506;-60
2022/08/24 04:22:50;;;;;;;;;;;;;;;23.70;64.75;100644.25;7406322;19;1371;-59
2022/08/24 04:25:19;;;;;;;;;;;;;;;23.73;64.68;100644.72;7407833;19;1848;-59
2022/08/24 04:27:48;;;;;;;;;;;;;;;23.76;64.40;100641.72;7406316;19;1547;-60
2022/08/24 04:30:16;;;;;;;;;;;;;;;23.68;64.62;100636.31;7405386;19;1791;-56
2022/08/24 04:32:47;;;;;;;;;;;;;;;23.82;64.40;100642.94;7405417;19;1352;-57
2022/08/24 04:35:19;;;;;;;;;;;;;;;23.87;64.46;100647.81;7405159;19;1576;-60
2022/08/24 04:37:47;;;;;;;;;;;;;;;24.02;64.38;100640.69;7403443;19;1869;-59
2022/08/24 04:40:16;;;;;;;;;;;;;;;24.08;64.18;100648.13;7405488;19;1457;-59
2022/08/24 04:42:44;;;;;;;;;;;;;;;24.02;64.95;100641.53;7404428;19;1640;-59
2022/08/24 04:45:13;;;;;;;;;;;;;;;24.05;64.96;100643.03;7405241;19;1431;-62
2022/08/24 04:47:41;;;;;;;;;;;;;;;23.99;65.11;100641.91;7405708;19;1495;-65
2022/08/24 04:50:13;;;;;;;;;;;;;;;24.04;65.03;100651.34;7405208;19;1340;-63
2022/08/24 04:52:41;;;;;;;;;;;;;;;24.18;64.62;100658.72;7405613;19;1273;-60
2022/08/24 04:55:11;;;;;;;;;;;;;;;24.04;65.11;100668.38;7405967;19;1277;-61
2022/08/24 04:57:40;;;;;;;;;;;;;;;23.92;65.88;100656.25;7403445;19;1842;-61
2022/08/24 05:00:10;;;;;;;;;;;;;;;23.98;65.39;100669.06;7406609;19;1529;-63
2022/08/24 05:02:40;;;;;;;;;;;;;;;24.07;65.05;100659.09;7403507;19;1652;-62
2022/08/24 05:05:09;;;;;;;;;;;;;;;24.18;64.75;100664.97;7404240;19;1459;-58
2022/08/24 05:07:40;;;;;;;;;;;;;;;24.19;64.95;100655.88;7402387;19;1566;-57
2022/08/24 05:10:09;;;;;;;;;;;;;;;24.12;64.98;100648.63;7402864;19;1236;-61
2022/08/24 05:12:38;;;;;;;;;;;;;;;24.13;64.82;100661.09;7402212;19;1420;-59
2022/08/24 05:15:07;;;;;;;;;;;;;;;24.21;64.96;100675.44;7403985;19;1529;-57
2022/08/24 05:17:35;;;;;;;;;;;;;;;24.25;64.87;100667.81;7404435;19;1869;-55
2022/08/24 05:20:04;;;;;;;;;;;;;;;24.28;64.70;100670.19;7403233;19;1432;-55
2022/08/24 05:22:32;;;;;;;;;;;;;;;24.27;64.94;100654.13;7404375;19;1444;-55
2022/08/24 05:25:04;;;;;;;;;;;;;;;24.33;64.48;100656.16;7402546;19;1683;-56
2022/08/24 05:27:34;;;;;;;;;;;;;;;24.37;64.33;100657.47;7403349;19;1336;-53
2022/08/24 05:30:02;;;;;;;;;;;;;;;24.43;64.64;100667.59;7401085;19;1345;-55
2022/08/24 05:32:31;;;;;;;;;;;;;;;24.46;64.04;100661.84;7400675;19;1349;-55
2022/08/24 05:35:03;;;;;;;;;;;;;;;24.54;64.12;100669.13;7404172;19;1285;-54
2022/08/24 05:37:31;;;;;;;;;;;;;;;24.34;65.28;100663.25;7401999;19;1861;-55
2022/08/24 05:40:00;;;;;;;;;;;;;;;24.36;65.33;100653.94;7403568;19;1350;-56
2022/08/24 05:42:31;;;;;;;;;;;;;;;24.32;65.33;100647.19;7401649;19;1364;-56
2022/08/24 05:45:00;;;;;;;;;;;;;;;24.37;65.47;100657.47;7401993;19;1364;-56
2022/08/24 05:47:29;;;;;;;;;;;;;;;24.47;65.32;100647.34;7402250;19;1286;-55
2022/08/24 05:49:57;;;;;;;;;;;;;;;24.42;65.34;100647.84;7403889;19;1172;-55
2022/08/24 05:52:26;;;;;;;;;;;;;;;24.49;65.70;100649.84;7403835;19;1310;-56
2022/08/24 05:54:55;;;;;;;;;;;;;;;24.54;65.83;100648.34;7403207;19;1428;-55
2022/08/24 05:57:24;;;;;;;;;;;;;;;24.48;66.19;100643.59;7402096;19;1841;-55
2022/08/24 05:59:55;;;;;;;;;;;;;;;24.54;66.06;100648.34;7402425;19;1562;-55
2022/08/24 06:02:24;;;;;;;;;;;;;;;24.50;66.50;100657.81;7402118;19;1607;-55
2022/08/24 06:04:52;;;;;;;;;;;;;;;24.52;66.38;100666.59;7402760;19;1436;-55
2022/08/24 06:07:21;;;;;;;;;;;;;;;24.45;66.33;100653.91;7403289;19;1589;-57
2022/08/24 06:09:49;;;;;;;;;;;;;;;24.31;66.39;100653.63;7403497;19;1581;-54
2022/08/24 06:12:18;;;;;;;;;;;;;;;24.35;65.80;100673.03;7403477;19;1435;-56
2022/08/24 06:14:47;;;;;;;;;;;;;;;24.35;66.64;100665.78;7402366;19;1477;-55
2022/08/24 06:17:18;;;;;;;;;;;;;;;24.37;66.66;100673.69;7402045;19;1845;-57
2022/08/24 06:19:47;;;;;;;;;;;;;;;24.24;67.04;100674.25;7402594;19;1427;-50
2022/08/24 06:22:15;;;;;;;;;;;;;;;24.29;67.15;100679.13;7401496;19;1436;-55
2022/08/24 06:27:25;;;;;;;;;;;;;;;24.07;66.57;100688.78;7402507;19;1309;-55
2022/08/24 06:29:54;;;;;;;;;;;;;;;24.12;67.11;100689.16;7400495;19;1373;-56
2022/08/24 06:32:25;;;;;;;;;;;;;;;24.28;65.96;100685.56;7402203;19;1317;-55
2022/08/24 06:34:57;;;;;;;;;;;;;;;24.32;65.35;100692.31;7401069;19;1267;-56
2022/08/24 06:37:26;;;;;;;;;;;;;;;24.31;65.53;100696.88;7401171;19;1850;-55
2022/08/24 06:39:55;;;;;;;;;;;;;;;24.24;66.99;100689.63;7401621;19;1348;-55
2022/08/24 06:42:24;;;;;;;;;;;;;;;24.28;66.70;100681.00;7406078;19;1273;-56
2022/08/24 06:44:52;;;;;;;;;;;;;;;24.41;66.15;100684.00;7409552;19;1369;-55
2022/08/24 06:47:21;;;;;;;;;;;;;;;24.45;66.06;100680.94;7405974;19;1696;-55
2022/08/24 06:49:52;;;;;;;;;;;;;;;24.46;66.37;100691.59;7406329;19;1511;-56
2022/08/24 06:52:21;;;;;;;;;;;;;;;24.55;66.62;100668.09;7408381;19;1565;-56
2022/08/24 06:54:49;;;;;;;;;;;;;;;24.53;66.12;100679.09;7408649;19;1538;-55
2022/08/24 06:57:18;;;;;;;;;;;;;;;24.45;66.42;100660.16;7409113;19;1818;-55
2022/08/24 06:59:46;;;;;;;;;;;;;;;24.55;67.26;100679.78;7408088;19;1601;-55
2022/08/24 07:02:17;;;;;;;;;;;;;;;24.65;67.06;100686.81;7403596;19;1680;-55
2022/08/24 07:04:46;;;;;;;;;;;;;;;24.74;66.40;100670.38;7408412;19;1545;-55
2022/08/24 07:07:18;;;;;;;;;;;;;;;24.75;66.16;100665.81;7408964;19;1567;-55
2022/08/24 07:09:46;;;;;;;;;;;;;;;24.74;65.55;100674.97;7405968;19;1133;-55
2022/08/24 07:12:15;;;;;;;;;;;;;;;24.68;65.51;100670.25;7409541;19;1625;-55
2022/08/24 07:14:43;;;;;;;;;;;;;;;24.76;66.52;100662.94;7408776;19;1461;-55
2022/08/24 07:17:12;;;;;;;;;;;;;;;24.80;65.81;100652.63;7407295;19;1868;-55
2022/08/24 07:19:41;;;;;;;;;;;;;;;24.98;65.62;100666.72;7408736;19;1386;-55
2022/08/24 07:22:09;;;;;;;;;;;;;;;25.08;66.24;100655.66;7408020;19;1572;-55
2022/08/24 07:24:40;;;;;;;;;;;;;;;25.07;65.62;100653.13;7408531;19;1264;-55
2022/08/24 07:27:09;;;;;;;;;;;;;;;25.10;65.20;100659.03;7406800;19;1394;-55
2022/08/24 07:29:38;;;;;;;;;;;;;;;25.15;66.03;100651.25;7407565;19;1320;-55
2022/08/24 07:32:08;;;;;;;;;;;;;;;25.24;66.13;100654.75;7408193;19;1353;-55
2022/08/24 07:34:37;;;;;;;;;;;;;;;25.13;65.91;100652.44;7408068;19;1406;-55
2022/08/24 07:37:06;;;;;;;;;;;;;;;25.11;66.37;100638.22;7407326;19;1853;-55
2022/08/24 07:39:35;;;;;;;;;;;;;;;25.13;65.71;100647.88;7406906;19;1253;-55
2022/08/24 07:42:06;;;;;;;;;;;;;;;25.16;65.73;100627.72;7406207;19;1267;-55
2022/08/24 07:44:34;;;;;;;;;;;;;;;25.20;65.58;100637.16;7407788;19;1282;-55
2022/08/24 07:47:03;;;;;;;;;;;;;;;25.24;65.80;100643.09;7407524;19;1730;-55
2022/08/24 07:49:31;;;;;;;;;;;;;;;25.23;65.49;100638.69;7405962;19;1506;-56
2022/08/24 07:52:00;;;;;;;;;;;;;;;25.23;64.61;100646.81;7407362;19;1608;-56
2022/08/24 07:54:29;;;;;;;;;;;;;;;25.30;64.22;100656.75;7407087;19;1507;-56
2022/08/24 07:56:57;;;;;;;;;;;;;;;25.32;64.32;100651.16;7408084;19;1853;-55
2022/08/24 07:59:29;;;;;;;;;;;;;;;25.33;65.34;100667.22;7407265;19;1498;-55
2022/08/24 08:01:57;;;;;;;;;;;;;;;25.32;64.79;100662.81;7405149;19;1779;-55
2022/08/24 08:04:26;;;;;;;;;;;;;;;25.38;64.97;100651.25;7407075;19;1494;-56
2022/08/24 08:06:55;;;;;;;;;;;;;;;25.43;65.38;100658.00;7407812;19;1526;-55
2022/08/24 08:09:23;;;;;;;;;;;;;;;25.36;65.21;100650.59;7406590;19;1321;-55
2022/08/24 08:11:52;;;;;;;;;;;;;;;25.36;65.05;100657.88;7407212;19;1782;-56
2022/08/24 08:14:20;;;;;;;;;;;;;;;25.40;64.96;100654.63;7405714;19;1723;-55
2022/08/24 08:16:52;;;;;;;;;;;;;;;25.51;67.54;100655.25;7406987;19;1537;-56
2022/08/24 08:19:20;;;;;;;;;;;;;;;25.60;65.82;100652.31;7405269;19;1853;-56
2022/08/24 08:24:31;;;;;;;;;;;;;;;25.61;64.04;100663.97;7408790;19;1325;-55
2022/08/24 08:27:00;;;;;;;;;;;;;;;25.72;62.99;100657.25;7406184;19;1593;-55
2022/08/24 08:29:29;;;;;;;;;;;;;;;25.67;63.35;100660.53;7405737;19;1502;-56
2022/08/24 08:32:00;;;;;;;;;;;;;;;25.67;63.08;100647.00;7406276;19;1600;-56
2022/08/24 08:34:30;;;;;;;;;;;;;;;25.52;63.45;100657.75;7406214;19;1608;-55
2022/08/24 08:36:58;;;;;;;;;;;;;;;25.59;63.30;100647.91;7404980;19;1708;-55
2022/08/24 08:39:28;;;;;;;;;;;;;;;25.56;63.49;100666.38;7405122;19;1853;-55
2022/08/24 08:42:13;;;;;;;;;;;;;;;25.58;64.11;100678.69;7404449;19;1774;-55
2022/08/24 08:44:58;;;;;;;;;;;;;;;25.48;63.66;100666.44;7404743;19;1546;-55
2022/08/24 08:47:43;;;;;;;;;;;;;;;25.42;64.09;100667.16;7405516;19;1571;-55
2022/08/24 08:50:15;;;;;;;;;;;;;;;25.49;63.73;100678.97;7403657;19;1423;-56
2022/08/24 08:53:01;;;;;;;;;;;;;;;25.49;63.48;100657.31;7406358;19;1407;-55
2022/08/24 08:55:32;;;;;;;;;;;;;;;25.51;63.24;100660.66;7403802;19;1649;-55
2022/08/24 08:58:11;;;;;;;;;;;;;;;25.57;63.22;100678.91;7405326;19;1867;-56
2022/08/24 09:00:50;;;;;;;;;;;;;;;25.57;62.62;100654.53;7405611;19;1553;-57
2022/08/24 09:03:38;;;;;;;;;;;;;;;25.63;62.78;100669.22;7404196;19;1257;-56
2022/08/24 09:06:25;;;;;;;;;;;;;;;25.72;62.59;100658.09;7402377;19;1864;-56
2022/08/24 09:09:00;;;;;;;;;;;;;;;25.74;62.09;100647.91;7404747;19;1677;-56
2022/08/24 09:11:33;;;;;;;;;;;;;;;25.70;61.65;100643.91;7404508;19;1601;-55
2022/08/24 09:14:11;;;;;;;;;;;;;;;25.68;62.10;100639.69;7404104;19;1604;-56
2022/08/24 09:16:47;;;;;;;;;;;;;;;25.64;62.43;100633.78;7405125;19;1534;-55
2022/08/24 09:19:27;;;;;;;;;;;;;;;25.77;62.93;100638.59;7402389;19;1860;-56
2022/08/24 09:22:04;;;;;;;;;;;;;;;25.79;62.31;100634.69;7403257;19;1725;-56
2022/08/24 09:24:43;;;;;;;;;;;;;;;25.69;62.29;100653.06;7404672;19;1370;-55
2022/08/24 09:27:16;;;;;;;;;;;;;;;25.50;62.28;100631.91;7400187;19;1255;-56
2022/08/24 09:29:49;;;;;;;;;;;;;;;25.49;62.33;100641.06;7403928;19;1310;-56
2022/08/24 09:32:27;;;;;;;;;;;;;;;25.47;62.37;100621.44;7402332;19;1487;-55
2022/08/24 09:35:01;;;;;;;;;;;;;;;25.45;62.91;100642.44;7404227;19;1542;-55
2022/08/24 09:37:34;;;;;;;;;;;;;;;25.66;63.08;100647.16;7403947;19;1853;-56
2022/08/24 09:40:05;;;;;;;;;;;;;;;25.68;62.74;100650.53;7403945;19;1743;-56
2022/08/24 09:42:48;;;;;;;;;;;;;;;25.79;63.00;100639.25;7401883;19;1337;-56
2022/08/24 09:45:29;;;;;;;;;;;;;;;25.79;63.25;100653.66;7404015;19;1589;-56
2022/08/24 09:48:06;;;;;;;;;;;;;;;25.71;62.66;100639.34;7404588;19;1545;-56
2022/08/24 09:50:50;;;;;;;;;;;;;;;25.77;64.06;100639.44;7404518;19;1517;-56
2022/08/24 09:53:33;;;;;;;;;;;;;;;25.76;64.39;100643.16;7402785;19;1530;-56
2022/08/24 09:56:26;;;;;;;;;;;;;;;25.69;64.00;100639.53;7401996;19;1364;-56
2022/08/24 09:59:01;;;;;;;;;;;;;;;25.67;64.66;100638.03;7402055;19;1853;-62
2022/08/24 10:01:33;;;;;;;;;;;;;;;25.62;65.21;100627.72;7398045;19;1616;-64
2022/08/24 10:04:10;;;;;;;;;;;;;;;25.72;65.02;100622.88;7403401;19;1251;-63
2022/08/24 10:06:46;;;;;;;;;;;;;;;25.70;65.05;100627.66;7404168;19;1558;-62
2022/08/24 10:09:29;;;;;;;;;;;;;;;25.71;65.34;100629.34;7402120;19;1676;-61
2022/08/24 10:12:03;;;;;;;;;;;;;;;25.71;65.56;100626.63;7404209;19;1765;-65
2022/08/24 10:14:42;;;;;;;;;;;;;;;25.70;65.55;100622.22;7402986;19;1667;-64
2022/08/24 10:17:14;;;;;;;;;;;;;;;25.69;65.78;100620.56;7407006;19;1570;-65
2022/08/24 10:19:50;;;;;;;;;;;;;;;25.68;65.88;100627.00;7405079;19;1883;-65
2022/08/24 10:22:26;;;;;;;;;;;;;;;25.69;65.42;100617.84;7408296;19;1259;-65
2022/08/24 10:25:04;;;;;;;;;;;;;;;25.69;65.54;100617.84;7411862;19;1533;-65
2022/08/24 10:27:41;;;;;;;;;;;;;;;25.72;65.24;100608.50;7410333;19;1759;-65
2022/08/24 10:30:26;;;;;;;;;;;;;;;25.69;65.24;100609.72;7411175;19;1541;-65
2022/08/24 10:32:59;;;;;;;;;;;;;;;25.66;65.15;100603.84;7410281;19;1546;-65
2022/08/24 10:35:30;;;;;;;;;;;;;;;25.71;65.29;100623.09;7411129;19;1613;-65
2022/08/24 10:41:10;;;;;;;;;;;;;;;25.67;64.99;100600.94;7409571;19;1351;-65
2022/08/24 10:43:50;;;;;;;;;;;;;;;25.69;64.85;100598.91;7410382;19;1599;-65
2022/08/24 10:46:34;;;;;;;;;;;;;;;25.75;64.81;100595.44;7410156;19;1592;-65
2022/08/24 10:49:22;;;;;;;;;;;;;;;25.70;65.18;100599.72;7410000;19;1546;-65
2022/08/24 10:51:58;;;;;;;;;;;;;;;25.66;65.42;100596.53;7410607;19;1540;-65
2022/08/24 10:54:29;;;;;;;;;;;;;;;25.63;65.40;100577.13;7410751;19;1530;-65
2022/08/24 10:57:03;;;;;;;;;;;;;;;25.68;65.18;100578.25;7410777;19;1444;-65
2022/08/24 10:59:35;;;;;;;;;;;;;;;25.64;65.06;100579.63;7406133;19;1853;-65
2022/08/24 11:02:06;;;;;;;;;;;;;;;25.63;65.07;100569.84;7406328;19;1192;-65
2022/08/24 11:04:38;;;;;;;;;;;;;;;25.67;65.27;100564.91;7408006;19;1321;-65
2022/08/24 11:07:11;;;;;;;;;;;;;;;25.70;64.87;100554.53;7409139;19;1390;-65
2022/08/24 11:09:50;;;;;;;;;;;;;;;25.69;65.33;100560.97;7409299;19;1363;-66
2022/08/24 11:12:23;;;;;;;;;;;;;;;25.66;65.29;100564.03;7409696;19;1225;-65
2022/08/24 11:14:51;;;;;;;;;;;;;;;25.66;65.34;100555.91;7408932;19;1473;-66
2022/08/24 11:17:21;;;;;;;;;;;;;;;25.66;65.26;100550.50;7408664;19;1565;-65
2022/08/24 11:19:49;;;;;;;;;;;;;;;25.66;65.32;100550.50;7405674;19;1864;-65
2022/08/24 11:22:30;;;;;;;;;;;;;;;25.62;65.63;100554.59;7409265;19;1267;-65
2022/08/24 11:25:03;;;;;;;;;;;;;;;25.67;65.75;100545.94;7409067;19;1267;-65
2022/08/24 11:27:35;;;;;;;;;;;;;;;25.66;65.63;100555.09;7403275;19;1412;-65
2022/08/24 11:30:14;;;;;;;;;;;;;;;25.71;65.54;100558.09;7405403;19;1299;-65
2022/08/24 11:32:44;;;;;;;;;;;;;;;25.64;65.35;100530.06;7409154;19;1326;-65
2022/08/24 11:35:25;;;;;;;;;;;;;;;25.66;65.48;100555.91;7407409;19;1153;-65
2022/08/24 11:37:55;;;;;;;;;;;;;;;25.65;65.19;100535.31;7408315;19;1696;-65
2022/08/24 11:40:28;;;;;;;;;;;;;;;25.63;65.04;100531.94;7404417;19;1861;-67
2022/08/24 11:43:08;;;;;;;;;;;;;;;25.64;64.76;100517.34;7408432;19;1668;-64
2022/08/24 11:45:39;;;;;;;;;;;;;;;25.66;64.64;100528.84;7407910;19;1487;-65
2022/08/24 11:48:15;;;;;;;;;;;;;;;25.67;64.64;100525.13;7408122;19;1671;-65
2022/08/24 11:50:45;;;;;;;;;;;;;;;25.70;64.70;100540.97;7407432;19;1612;-65
2022/08/24 11:53:22;;;;;;;;;;;;;;;25.70;64.85;100537.44;7408296;19;1337;-65
2022/08/24 11:55:58;;;;;;;;;;;;;;;25.70;64.78;100534.72;7408149;19;1550;-65
2022/08/24 11:58:37;;;;;;;;;;;;;;;25.69;64.76;100517.66;7406520;19;1850;-65
2022/08/24 12:01:09;;;;;;;;;;;;;;;25.68;65.10;100521.38;7405160;19;1628;-65
2022/08/24 12:03:45;;;;;;;;;;;;;;;25.70;65.08;100534.72;7408088;19;1521;-65
2022/08/24 12:06:20;;;;;;;;;;;;;;;25.70;65.12;100510.34;7406706;19;1460;-64
2022/08/24 12:08:53;;;;;;;;;;;;;;;25.69;64.84;100519.53;7405013;19;1839;-64
2022/08/24 12:11:31;;;;;;;;;;;;;;;25.68;65.15;100510.53;7407058;19;1420;-55
2022/08/24 12:14:06;;;;;;;;;;;;;;;25.72;65.01;100519.97;7407008;19;1534;-64
2022/08/24 12:16:37;;;;;;;;;;;;;;;25.66;64.99;100507.19;7407347;19;1613;-55
2022/08/24 12:19:07;;;;;;;;;;;;;;;25.66;64.94;100501.75;7403885;19;1854;-64
2022/08/24 12:21:39;;;;;;;;;;;;;;;25.71;65.02;100521.00;7406174;19;1581;-64
2022/08/24 12:24:09;;;;;;;;;;;;;;;25.65;65.28;100521.75;7405192;19;1758;-56
2022/08/24 12:26:43;;;;;;;;;;;;;;;25.71;65.28;100520.19;7405839;19;1540;-55
2022/08/24 12:29:14;;;;;;;;;;;;;;;25.77;64.88;100527.56;7406902;19;1619;-64
2022/08/24 12:31:44;;;;;;;;;;;;;;;25.73;65.25;100524.38;7405772;19;1322;-56
2022/08/24 12:34:15;;;;;;;;;;;;;;;25.77;65.69;100522.13;7407302;19;1554;-56
2022/08/24 12:36:48;;;;;;;;;;;;;;;25.72;65.73;100524.56;7403787;19;1353;-55
2022/08/24 12:39:19;;;;;;;;;;;;;;;25.73;65.45;100515.41;7401698;19;1849;-65
2022/08/24 12:41:56;;;;;;;;;;;;;;;25.70;65.77;100522.03;7403050;19;1529;-55
2022/08/24 12:44:26;;;;;;;;;;;;;;;25.70;65.90;100513.91;7405559;19;1625;-63
2022/08/24 12:46:55;;;;;;;;;;;;;;;25.69;65.94;100523.06;7403941;19;1613;-65
2022/08/24 12:49:28;;;;;;;;;;;;;;;25.72;65.77;100521.84;7406420;19;1529;-55
2022/08/24 12:52:15;;;;;;;;;;;;;;;25.69;65.62;100517.66;7405897;19;1340;-56
2022/08/24 12:54:52;;;;;;;;;;;;;;;25.68;65.83;100524.06;7405667;19;1486;-60
2022/08/24 12:57:34;;;;;;;;;;;;;;;25.76;65.71;100531.28;7405910;19;1363;-54
2022/08/24 13:00:05;;;;;;;;;;;;;;;25.75;65.89;100526.91;7405501;19;1861;-55
2022/08/24 13:02:36;;;;;;;;;;;;;;;25.72;65.33;100538.94;7402084;19;1309;-63
2022/08/24 13:05:07;;;;;;;;;;;;;;;25.77;65.90;100531.09;7401097;19;1783;-54
2022/08/24 13:07:41;;;;;;;;;;;;;;;25.71;65.10;100531.84;7403591;19;1255;-55
2022/08/24 13:10:12;;;;;;;;;;;;;;;25.73;65.45;100540.63;7403340;19;1243;-55
2022/08/24 13:12:55;;;;;;;;;;;;;;;25.75;65.58;100532.31;7405769;19;1349;-61
2022/08/24 13:15:50;;;;;;;;;;;;;;;25.77;65.54;100533.81;7403482;19;1463;-61
2022/08/24 13:18:33;;;;;;;;;;;;;;;25.72;65.60;100530.81;7404971;19;1259;-53
2022/08/24 13:21:02;;;;;;;;;;;;;;;25.76;65.86;100533.97;7402022;19;1866;-55